createdAt,value
2022-12-06T00:18:31.388Z,3.84
2022-12-06T00:38:31.602Z,3.79
2022-12-06T00:58:32.138Z,3.63
2022-12-06T01:18:31.507Z,3.55
2022-12-06T01:38:31.521Z,3.54
2022-12-06T01:58:31.536Z,3.55
2022-12-06T02:18:31.614Z,3.55
2022-12-06T02:38:31.727Z,3.55
2022-12-06T02:58:31.800Z,3.55
2022-12-06T03:18:32.069Z,3.54
2022-12-06T03:38:31.846Z,3.48
2022-12-06T03:58:31.842Z,3.43
2022-12-06T04:18:31.952Z,3.42
2022-12-06T04:38:32.032Z,3.39
2022-12-06T04:58:32.033Z,3.36
2022-12-06T05:38:32.005Z,3.28
2022-12-06T05:58:32.216Z,3.27
2022-12-06T06:18:32.250Z,3.31
2022-12-06T06:58:32.307Z,3.52
2022-12-06T07:18:32.371Z,3.54
2022-12-06T07:38:32.332Z,3.55
2022-12-06T07:58:32.401Z,3.61
2022-12-06T08:18:32.464Z,3.66
2022-12-06T08:38:32.496Z,3.61
2022-12-06T08:58:32.976Z,3.55
2022-12-06T09:18:32.631Z,3.49
2022-12-06T09:38:32.763Z,3.28
2022-12-06T09:58:32.777Z,3.19
2022-12-06T10:18:32.805Z,3.11
2022-12-06T10:38:32.847Z,2.96
2022-12-06T10:58:32.869Z,2.93
2022-12-06T11:18:32.925Z,2.83
2022-12-06T11:38:32.945Z,2.69
2022-12-06T11:58:33.101Z,2.69
2022-12-06T12:18:33.038Z,2.77
2022-12-06T12:38:33.186Z,2.98
2022-12-06T12:58:36.090Z,3.03
2022-12-06T13:18:33.210Z,3.27
2022-12-06T13:38:33.259Z,3.19
2022-12-06T13:58:33.301Z,3.11
2022-12-06T14:18:33.444Z,3.15
2022-12-06T14:38:33.487Z,3.12
2022-12-06T14:58:33.464Z,3.04
2022-12-06T15:18:33.495Z,2.96
2022-12-06T15:38:33.509Z,2.94
2022-12-06T15:58:33.633Z,2.94
2022-12-06T16:18:33.564Z,2.95
2022-12-06T16:38:33.680Z,2.97
2022-12-06T16:58:33.728Z,3
2022-12-06T17:18:33.861Z,2.97
2022-12-06T17:38:33.818Z,3
2022-12-06T17:58:33.925Z,2.98
2022-12-06T18:18:33.906Z,3
2022-12-06T18:38:34.026Z,2.95
2022-12-06T18:58:34.011Z,2.92
2022-12-06T19:18:34.016Z,2.9
2022-12-06T19:38:34.154Z,2.85
2022-12-06T19:58:34.146Z,2.81
2022-12-06T20:18:34.191Z,2.85
2022-12-06T20:38:34.308Z,2.8
2022-12-06T20:58:34.380Z,2.83
2022-12-06T21:18:34.266Z,2.76
2022-12-06T21:38:34.356Z,1.88
2022-12-06T21:58:34.289Z,1.72
2022-12-06T22:18:36.861Z,1.7
2022-12-06T22:38:34.520Z,1.74
2022-12-06T22:58:34.507Z,1.79
2022-12-06T23:18:34.647Z,1.83
2022-12-06T23:38:34.706Z,1.8
2022-12-06T23:58:34.779Z,1.83
